Flight Track Log - Related Links

Times and Time Zones

All times are in EDT time to prevent confusion due to time zone crossing. See the CHQ5046 flight status page for this flight to view local times or setup timezone preferences in your user account.

Time Position Orientation Groundspeed Altitude Reporting Facility
EDT Latitude Longitude Course Direction KTS MPH feet Rate Location/Type
Fri 06:40:19 PM 41.9167 -87.8667 78° East 214 246 3,200  Level Chicago TRACON
Fri 06:41:19 PM 41.9333 -87.7667 77° East 247 284 5,000 1,095 Climbing Chicago TRACON
Fri 06:42:25 PM 41.9500 -87.6667 77° East 267 307 5,500 1,455 Climbing Chicago TRACON
Fri 06:43:31 PM 41.9667 -87.5667 77° East 290 334 8,200 2,143 Climbing Chicago TRACON
Fri 06:44:31 PM 42.0000 -87.4500 69° East 301 346 10,000 947 Climbing Chicago TRACON
Fri 06:45:00 PM 42.0578 -87.3273 78° East  Level FlightAware Approximate
Fri 06:45:25 PM 42.0333 -87.3667 62° Northeast 287 330 10,000  Level Chicago TRACON
Fri 06:46:16 PM 42.0508 -87.2869 74° East 285 328 10,000 -53 Level Chicago Center
Fri 06:47:18 PM 42.0681 -87.1883 77° East 272 313 9,900  Descending Chicago Center
Fri 06:48:20 PM 42.0789 -87.0917 81° East 262 302 10,000 96 Climbing Chicago Center
Fri 06:49:23 PM 42.0889 -86.9956 82° East 261 300 10,100 48 Climbing Chicago Center
Fri 06:50:25 PM 42.1022 -86.8772 81° East 266 306 10,100 -435 Level Chicago Center
Fri 06:51:27 PM 42.1111 -86.7767 83° East 271 312 9,200  Descending Chicago Center
Fri 06:52:29 PM 42.1222 -86.6753 82° East 272 313 10,100 387 Climbing Chicago Center
Fri 06:53:31 PM 42.1319 -86.5742 83° East 273 314 10,000 -145 Descending Chicago Center
Fri 06:54:33 PM 42.1428 -86.4722 82° East 275 316 9,800 -774 Descending Chicago Center
Fri 06:55:35 PM 42.1533 -86.3708 82° East 275 316 8,400 -1,403 Descending Chicago Center
Fri 06:56:37 PM 42.1631 -86.2697 83° East 273 314 6,900 -1,548 Descending Chicago Center
Fri 06:57:39 PM 42.1919 -86.1550 71° East 269 310 5,200 -919 Descending Chicago Center
Fri 06:58:41 PM 42.2150 -86.0661 71° East 259 298 5,000 -290 Descending Chicago Center
Fri 06:59:43 PM 42.2369 -85.9792 71° East 249 287 4,600 -919 Descending Chicago Center
Fri 07:00:45 PM 42.2606 -85.8908 70° East 249 287 3,100 -1,016 Descending Chicago Center
Fri 07:01:47 PM 42.2867 -85.7942 70° East 249 287 2,500 -288 Descending Chicago Center
Fri 07:02:50 PM 42.3094 -85.7089 70° East 245 282 2,500  Level Chicago Center
Fri 07:03:52 PM 42.3264 -85.6256 75° East 237 273 2,500 -48 Level Chicago Center
Fri 07:04:54 PM 42.3219 -85.5700 96° East 175 201 2,400 -290 Descending Chicago Center
Fri 07:05:56 PM 42.2886 -85.5614 169° South 129 148 1,900 -484 Descending Chicago Center
Fri 07:06:58 PM 42.2519 -85.5547 172° South 118 136 1,400 -484 Descending Chicago Center
Fri 07:08:00 PM 42.2333 -85.5500 172° South  Level FlightAware Approximate

Login

Don't have an account? Register now (free) for customized features, flight alerts, and more!